This London Heathrow Airport weather forecast is generated by the Met Office Weather Widget

AirNav RadarBox - Metar Weather
  London Heathrow Metar Weather
 

METAR = EGLL 312050Z 20008KT 160V240 CAVOK 16/07 Q1016 NOSIG

STATION........ EGLL
OBSERVED....... Fri Jul 31, 21:50 BST
NOW............ Fri Jul 31, 22:23 BST
AGE............ 33 min ago
WIND........... SSW at 9 mph
VISIBILITY..... greater than 7 miles
CLOUDS......... clear skies
TEMP........... 61°F (16°C)
DEWPT.......... 45°F (7°C)
HUMIDITY....... 55%
BAROMETER...... 1016 hPa (30 in Hg)

Fri Jul 31 2015, sunrise time : 04:28
Fri Jul 31 2015, sunset time : 19:47